sensor_id;sensor_type;location;lat;lon;timestamp;P1;durP1;ratioP1;P2;durP2;ratioP2
8642;SDS011;4359;49.358;11.256;2023-05-10T00:00:45;6.72;;;4.35;;
8642;SDS011;4359;49.358;11.256;2023-05-10T00:03:11;7.15;;;4.60;;
8642;SDS011;4359;49.358;11.256;2023-05-10T00:05:37;8.93;;;4.82;;
8642;SDS011;4359;49.358;11.256;2023-05-10T00:08:02;5.80;;;4.50;;
8642;SDS011;4359;49.358;11.256;2023-05-10T00:10:28;6.53;;;4.53;;
8642;SDS011;4359;49.358;11.256;2023-05-10T00:12:54;6.47;;;4.18;;
8642;SDS011;4359;49.358;11.256;2023-05-10T00:15:19;7.32;;;4.88;;
8642;SDS011;4359;49.358;11.256;2023-05-10T00:17:45;5.68;;;4.50;;
8642;SDS011;4359;49.358;11.256;2023-05-10T00:20:11;7.40;;;5.03;;
8642;SDS011;4359;49.358;11.256;2023-05-10T00:22:36;9.25;;;5.72;;
8642;SDS011;4359;49.358;11.256;2023-05-10T00:25:02;9.60;;;5.22;;
8642;SDS011;4359;49.358;11.256;2023-05-10T00:27:28;7.15;;;5.35;;
8642;SDS011;4359;49.358;11.256;2023-05-10T00:29:54;7.40;;;5.35;;
8642;SDS011;4359;49.358;11.256;2023-05-10T00:32:19;11.43;;;5.25;;
8642;SDS011;4359;49.358;11.256;2023-05-10T00:34:45;7.25;;;4.97;;
8642;SDS011;4359;49.358;11.256;2023-05-10T00:37:11;9.30;;;5.82;;
8642;SDS011;4359;49.358;11.256;2023-05-10T00:39:36;6.57;;;5.10;;
8642;SDS011;4359;49.358;11.256;2023-05-10T00:42:02;9.68;;;5.32;;
8642;SDS011;4359;49.358;11.256;2023-05-10T00:44:29;8.75;;;5.80;;
8642;SDS011;4359;49.358;11.256;2023-05-10T00:46:56;7.93;;;5.55;;
8642;SDS011;4359;49.358;11.256;2023-05-10T00:49:22;7.50;;;5.50;;
8642;SDS011;4359;49.358;11.256;2023-05-10T00:51:48;8.38;;;5.97;;
8642;SDS011;4359;49.358;11.256;2023-05-10T00:54:14;13.60;;;6.13;;
8642;SDS011;4359;49.358;11.256;2023-05-10T00:56:40;11.20;;;6.80;;
8642;SDS011;4359;49.358;11.256;2023-05-10T00:59:07;11.95;;;6.28;;
8642;SDS011;4359;49.358;11.256;2023-05-10T01:01:34;8.98;;;6.90;;
8642;SDS011;4359;49.358;11.256;2023-05-10T01:04:01;13.32;;;6.78;;
8642;SDS011;4359;49.358;11.256;2023-05-10T01:06:28;10.70;;;6.55;;
8642;SDS011;4359;49.358;11.256;2023-05-10T01:08:53;9.05;;;6.80;;
8642;SDS011;4359;49.358;11.256;2023-05-10T01:11:20;9.20;;;7.03;;
8642;SDS011;4359;49.358;11.256;2023-05-10T01:13:47;13.52;;;6.65;;
8642;SDS011;4359;49.358;11.256;2023-05-10T01:16:19;10.50;;;6.63;;
8642;SDS011;4359;49.358;11.256;2023-05-10T01:18:45;13.77;;;8.13;;
8642;SDS011;4359;49.358;11.256;2023-05-10T01:21:30;10.00;;;7.45;;
8642;SDS011;4359;49.358;11.256;2023-05-10T01:24:27;10.45;;;7.72;;
8642;SDS011;4359;49.358;11.256;2023-05-10T01:32:49;12.38;;;8.45;;
8642;SDS011;4359;49.358;11.256;2023-05-10T01:38:16;11.10;;;8.65;;
8642;SDS011;4359;49.358;11.256;2023-05-10T01:49:41;14.80;;;9.85;;
8642;SDS011;4359;49.358;11.256;2023-05-10T01:52:16;13.45;;;9.65;;
8642;SDS011;4359;49.358;11.256;2023-05-10T01:54:51;11.98;;;9.10;;
8642;SDS011;4359;49.358;11.256;2023-05-10T01:57:21;11.55;;;8.18;;
8642;SDS011;4359;49.358;11.256;2023-05-10T01:59:50;14.20;;;9.93;;
8642;SDS011;4359;49.358;11.256;2023-05-10T02:02:17;11.82;;;9.20;;
8642;SDS011;4359;49.358;11.256;2023-05-10T02:04:46;12.98;;;9.50;;
8642;SDS011;4359;49.358;11.256;2023-05-10T02:07:14;12.23;;;9.38;;
8642;SDS011;4359;49.358;11.256;2023-05-10T02:09:42;12.40;;;9.13;;
8642;SDS011;4359;49.358;11.256;2023-05-10T02:12:12;11.68;;;8.55;;
8642;SDS011;4359;49.358;11.256;2023-05-10T02:14:39;14.90;;;9.20;;
8642;SDS011;4359;49.358;11.256;2023-05-10T02:17:07;12.48;;;9.25;;
8642;SDS011;4359;49.358;11.256;2023-05-10T02:19:35;17.05;;;9.95;;
8642;SDS011;4359;49.358;11.256;2023-05-10T02:22:03;15.07;;;9.82;;
8642;SDS011;4359;49.358;11.256;2023-05-10T02:24:30;12.25;;;9.23;;
8642;SDS011;4359;49.358;11.256;2023-05-10T02:26:57;11.75;;;9.05;;
8642;SDS011;4359;49.358;11.256;2023-05-10T02:29:24;12.07;;;9.48;;
8642;SDS011;4359;49.358;11.256;2023-05-10T02:31:52;11.95;;;8.98;;
8642;SDS011;4359;49.358;11.256;2023-05-10T02:34:19;16.67;;;11.15;;
8642;SDS011;4359;49.358;11.256;2023-05-10T02:36:50;14.25;;;10.32;;
8642;SDS011;4359;49.358;11.256;2023-05-10T02:39:17;17.48;;;10.88;;
8642;SDS011;4359;49.358;11.256;2023-05-10T02:41:44;14.70;;;10.65;;
8642;SDS011;4359;49.358;11.256;2023-05-10T02:44:11;13.13;;;9.63;;
8642;SDS011;4359;49.358;11.256;2023-05-10T02:46:40;14.57;;;10.45;;
8642;SDS011;4359;49.358;11.256;2023-05-10T02:49:06;16.45;;;10.40;;
8642;SDS011;4359;49.358;11.256;2023-05-10T02:51:33;15.48;;;11.27;;
8642;SDS011;4359;49.358;11.256;2023-05-10T02:54:04;16.38;;;10.32;;
8642;SDS011;4359;49.358;11.256;2023-05-10T02:56:36;15.27;;;10.52;;
8642;SDS011;4359;49.358;11.256;2023-05-10T02:59:11;12.52;;;10.00;;
8642;SDS011;4359;49.358;11.256;2023-05-10T03:01:37;17.58;;;12.38;;
8642;SDS011;4359;49.358;11.256;2023-05-10T03:04:03;14.32;;;10.50;;
8642;SDS011;4359;49.358;11.256;2023-05-10T03:06:29;13.50;;;10.55;;
8642;SDS011;4359;49.358;11.256;2023-05-10T03:08:55;14.98;;;11.10;;
8642;SDS011;4359;49.358;11.256;2023-05-10T03:11:23;35.63;;;12.95;;
8642;SDS011;4359;49.358;11.256;2023-05-10T03:16:52;16.83;;;11.70;;
8642;SDS011;4359;49.358;11.256;2023-05-10T03:19:30;13.30;;;10.75;;
8642;SDS011;4359;49.358;11.256;2023-05-10T03:22:03;13.60;;;10.73;;
8642;SDS011;4359;49.358;11.256;2023-05-10T03:24:33;16.05;;;11.77;;
8642;SDS011;4359;49.358;11.256;2023-05-10T03:27:01;16.33;;;11.52;;
8642;SDS011;4359;49.358;11.256;2023-05-10T03:29:29;14.55;;;10.93;;
8642;SDS011;4359;49.358;11.256;2023-05-10T03:31:57;18.73;;;12.45;;
8642;SDS011;4359;49.358;11.256;2023-05-10T03:34:24;17.50;;;11.88;;
8642;SDS011;4359;49.358;11.256;2023-05-10T03:36:50;15.50;;;10.88;;
8642;SDS011;4359;49.358;11.256;2023-05-10T03:39:16;11.95;;;8.60;;
8642;SDS011;4359;49.358;11.256;2023-05-10T03:41:41;10.85;;;7.40;;
8642;SDS011;4359;49.358;11.256;2023-05-10T03:44:07;9.68;;;6.82;;
8642;SDS011;4359;49.358;11.256;2023-05-10T03:46:33;7.55;;;5.65;;
8642;SDS011;4359;49.358;11.256;2023-05-10T03:48:59;9.77;;;5.05;;
8642;SDS011;4359;49.358;11.256;2023-05-10T03:51:24;7.45;;;4.93;;
8642;SDS011;4359;49.358;11.256;2023-05-10T03:53:53;5.47;;;3.85;;
8642;SDS011;4359;49.358;11.256;2023-05-10T03:56:19;5.18;;;3.03;;
8642;SDS011;4359;49.358;11.256;2023-05-10T03:58:45;6.10;;;3.13;;
8642;SDS011;4359;49.358;11.256;2023-05-10T04:01:11;4.30;;;2.40;;
8642;SDS011;4359;49.358;11.256;2023-05-10T04:03:37;3.83;;;2.40;;
8642;SDS011;4359;49.358;11.256;2023-05-10T04:06:03;4.53;;;2.13;;
8642;SDS011;4359;49.358;11.256;2023-05-10T04:08:29;3.78;;;2.45;;
8642;SDS011;4359;49.358;11.256;2023-05-10T04:11:04;4.68;;;2.42;;
8642;SDS011;4359;49.358;11.256;2023-05-10T04:13:31;3.70;;;2.42;;
8642;SDS011;4359;49.358;11.256;2023-05-10T04:15:57;3.88;;;2.22;;
8642;SDS011;4359;49.358;11.256;2023-05-10T04:18:22;6.60;;;2.25;;
8642;SDS011;4359;49.358;11.256;2023-05-10T04:20:48;4.18;;;2.15;;
8642;SDS011;4359;49.358;11.256;2023-05-10T04:23:14;3.85;;;2.20;;
8642;SDS011;4359;49.358;11.256;2023-05-10T04:25:41;4.50;;;2.30;;
8642;SDS011;4359;49.358;11.256;2023-05-10T04:28:07;4.05;;;2.03;;
8642;SDS011;4359;49.358;11.256;2023-05-10T04:30:33;3.33;;;2.08;;
8642;SDS011;4359;49.358;11.256;2023-05-10T04:32:59;4.93;;;2.10;;
8642;SDS011;4359;49.358;11.256;2023-05-10T04:35:26;3.40;;;1.60;;
8642;SDS011;4359;49.358;11.256;2023-05-10T04:37:53;3.55;;;1.50;;
8642;SDS011;4359;49.358;11.256;2023-05-10T04:40:18;4.20;;;2.13;;
8642;SDS011;4359;49.358;11.256;2023-05-10T04:42:45;3.13;;;1.50;;
8642;SDS011;4359;49.358;11.256;2023-05-10T04:45:10;4.40;;;1.63;;
8642;SDS011;4359;49.358;11.256;2023-05-10T04:47:36;1.90;;;1.40;;
8642;SDS011;4359;49.358;11.256;2023-05-10T04:50:03;2.00;;;1.17;;
8642;SDS011;4359;49.358;11.256;2023-05-10T04:52:29;3.85;;;1.50;;
8642;SDS011;4359;49.358;11.256;2023-05-10T04:54:55;2.35;;;1.35;;
8642;SDS011;4359;49.358;11.256;2023-05-10T04:57:20;3.35;;;1.30;;
8642;SDS011;4359;49.358;11.256;2023-05-10T04:59:46;2.85;;;1.33;;
8642;SDS011;4359;49.358;11.256;2023-05-10T05:02:12;2.00;;;1.20;;
8642;SDS011;4359;49.358;11.256;2023-05-10T05:04:37;1.85;;;1.10;;
8642;SDS011;4359;49.358;11.256;2023-05-10T05:07:03;2.75;;;1.13;;
8642;SDS011;4359;49.358;11.256;2023-05-10T05:09:28;2.85;;;1.00;;
8642;SDS011;4359;49.358;11.256;2023-05-10T05:11:54;2.10;;;0.90;;
8642;SDS011;4359;49.358;11.256;2023-05-10T05:14:20;2.22;;;1.08;;
8642;SDS011;4359;49.358;11.256;2023-05-10T05:16:46;3.75;;;1.20;;
8642;SDS011;4359;49.358;11.256;2023-05-10T05:19:12;1.83;;;0.80;;
8642;SDS011;4359;49.358;11.256;2023-05-10T05:21:37;1.83;;;1.10;;
8642;SDS011;4359;49.358;11.256;2023-05-10T05:24:10;1.92;;;0.85;;
8642;SDS011;4359;49.358;11.256;2023-05-10T05:26:37;1.65;;;0.95;;
8642;SDS011;4359;49.358;11.256;2023-05-10T05:29:03;2.75;;;1.00;;
8642;SDS011;4359;49.358;11.256;2023-05-10T05:31:29;1.77;;;0.90;;
8642;SDS011;4359;49.358;11.256;2023-05-10T05:33:54;2.25;;;1.00;;
8642;SDS011;4359;49.358;11.256;2023-05-10T05:36:20;1.67;;;0.90;;
8642;SDS011;4359;49.358;11.256;2023-05-10T05:38:46;1.50;;;0.80;;
8642;SDS011;4359;49.358;11.256;2023-05-10T05:41:12;3.63;;;1.08;;
8642;SDS011;4359;49.358;11.256;2023-05-10T05:43:38;1.98;;;0.90;;
8642;SDS011;4359;49.358;11.256;2023-05-10T05:46:04;2.15;;;0.95;;
8642;SDS011;4359;49.358;11.256;2023-05-10T05:48:30;1.90;;;0.80;;
8642;SDS011;4359;49.358;11.256;2023-05-10T05:50:56;1.58;;;0.70;;
8642;SDS011;4359;49.358;11.256;2023-05-10T05:53:22;1.67;;;0.75;;
8642;SDS011;4359;49.358;11.256;2023-05-10T05:55:55;2.25;;;0.60;;
8642;SDS011;4359;49.358;11.256;2023-05-10T05:58:22;1.85;;;0.65;;
8642;SDS011;4359;49.358;11.256;2023-05-10T06:00:49;2.53;;;0.80;;
8642;SDS011;4359;49.358;11.256;2023-05-10T06:03:15;1.45;;;0.70;;
8642;SDS011;4359;49.358;11.256;2023-05-10T06:05:41;1.95;;;0.65;;
8642;SDS011;4359;49.358;11.256;2023-05-10T06:08:06;2.33;;;0.55;;
8642;SDS011;4359;49.358;11.256;2023-05-10T06:10:32;1.42;;;0.80;;
8642;SDS011;4359;49.358;11.256;2023-05-10T06:12:58;1.67;;;0.93;;
8642;SDS011;4359;49.358;11.256;2023-05-10T06:15:23;1.67;;;0.90;;
8642;SDS011;4359;49.358;11.256;2023-05-10T06:17:49;1.42;;;0.80;;
8642;SDS011;4359;49.358;11.256;2023-05-10T06:20:15;1.80;;;0.90;;
8642;SDS011;4359;49.358;11.256;2023-05-10T06:22:41;1.77;;;1.00;;
8642;SDS011;4359;49.358;11.256;2023-05-10T06:25:07;1.70;;;1.02;;
8642;SDS011;4359;49.358;11.256;2023-05-10T06:27:33;1.77;;;1.10;;
8642;SDS011;4359;49.358;11.256;2023-05-10T06:29:59;1.60;;;0.82;;
8642;SDS011;4359;49.358;11.256;2023-05-10T06:32:25;2.10;;;0.98;;
8642;SDS011;4359;49.358;11.256;2023-05-10T06:34:50;1.45;;;0.90;;
8642;SDS011;4359;49.358;11.256;2023-05-10T06:37:17;1.80;;;1.00;;
8642;SDS011;4359;49.358;11.256;2023-05-10T06:39:42;2.20;;;1.10;;
8642;SDS011;4359;49.358;11.256;2023-05-10T06:42:08;4.70;;;1.08;;
8642;SDS011;4359;49.358;11.256;2023-05-10T06:44:34;1.85;;;1.10;;
8642;SDS011;4359;49.358;11.256;2023-05-10T06:46:59;4.32;;;1.20;;
8642;SDS011;4359;49.358;11.256;2023-05-10T06:49:25;2.08;;;1.20;;
8642;SDS011;4359;49.358;11.256;2023-05-10T06:51:51;3.00;;;1.27;;
8642;SDS011;4359;49.358;11.256;2023-05-10T06:54:16;1.90;;;0.85;;
8642;SDS011;4359;49.358;11.256;2023-05-10T06:56:42;2.45;;;1.30;;
8642;SDS011;4359;49.358;11.256;2023-05-10T06:59:08;2.95;;;1.15;;
8642;SDS011;4359;49.358;11.256;2023-05-10T07:01:34;4.28;;;1.00;;
8642;SDS011;4359;49.358;11.256;2023-05-10T07:04:00;1.80;;;1.05;;
8642;SDS011;4359;49.358;11.256;2023-05-10T07:06:25;2.00;;;1.00;;
8642;SDS011;4359;49.358;11.256;2023-05-10T07:08:52;1.63;;;1.00;;
8642;SDS011;4359;49.358;11.256;2023-05-10T07:11:17;3.83;;;1.10;;
8642;SDS011;4359;49.358;11.256;2023-05-10T07:13:43;2.22;;;1.08;;
8642;SDS011;4359;49.358;11.256;2023-05-10T07:16:11;3.47;;;1.00;;
8642;SDS011;4359;49.358;11.256;2023-05-10T07:18:37;2.17;;;1.10;;
8642;SDS011;4359;49.358;11.256;2023-05-10T07:21:02;2.00;;;0.90;;
8642;SDS011;4359;49.358;11.256;2023-05-10T07:23:28;3.47;;;1.00;;
8642;SDS011;4359;49.358;11.256;2023-05-10T07:25:54;2.75;;;0.90;;
8642;SDS011;4359;49.358;11.256;2023-05-10T07:28:22;2.30;;;1.08;;
8642;SDS011;4359;49.358;11.256;2023-05-10T07:30:48;2.17;;;0.73;;
8642;SDS011;4359;49.358;11.256;2023-05-10T07:33:14;1.58;;;0.85;;
8642;SDS011;4359;49.358;11.256;2023-05-10T07:35:39;1.38;;;0.60;;
8642;SDS011;4359;49.358;11.256;2023-05-10T07:38:05;3.00;;;0.80;;
8642;SDS011;4359;49.358;11.256;2023-05-10T07:40:31;2.97;;;0.80;;
8642;SDS011;4359;49.358;11.256;2023-05-10T07:42:57;1.85;;;0.73;;
8642;SDS011;4359;49.358;11.256;2023-05-10T07:45:23;1.95;;;0.90;;
8642;SDS011;4359;49.358;11.256;2023-05-10T07:47:49;2.22;;;1.00;;
8642;SDS011;4359;49.358;11.256;2023-05-10T07:50:15;3.28;;;1.05;;
8642;SDS011;4359;49.358;11.256;2023-05-10T07:52:40;4.90;;;1.00;;
8642;SDS011;4359;49.358;11.256;2023-05-10T07:55:07;4.43;;;1.33;;
8642;SDS011;4359;49.358;11.256;2023-05-10T07:57:33;4.25;;;1.10;;
8642;SDS011;4359;49.358;11.256;2023-05-10T07:59:59;2.33;;;1.02;;
8642;SDS011;4359;49.358;11.256;2023-05-10T08:02:25;3.38;;;1.10;;
8642;SDS011;4359;49.358;11.256;2023-05-10T08:04:51;5.07;;;0.90;;
8642;SDS011;4359;49.358;11.256;2023-05-10T08:07:16;3.22;;;0.80;;
8642;SDS011;4359;49.358;11.256;2023-05-10T08:09:42;3.05;;;1.20;;
8642;SDS011;4359;49.358;11.256;2023-05-10T08:12:08;4.43;;;1.00;;
8642;SDS011;4359;49.358;11.256;2023-05-10T08:14:34;3.17;;;1.00;;
8642;SDS011;4359;49.358;11.256;2023-05-10T08:17:01;2.70;;;1.20;;
8642;SDS011;4359;49.358;11.256;2023-05-10T08:19:28;3.75;;;1.10;;
8642;SDS011;4359;49.358;11.256;2023-05-10T08:21:53;4.70;;;1.27;;
8642;SDS011;4359;49.358;11.256;2023-05-10T08:24:20;1.75;;;1.00;;
8642;SDS011;4359;49.358;11.256;2023-05-10T08:26:46;1.92;;;0.80;;
8642;SDS011;4359;49.358;11.256;2023-05-10T08:29:12;3.17;;;0.80;;
8642;SDS011;4359;49.358;11.256;2023-05-10T08:31:38;2.03;;;0.77;;
8642;SDS011;4359;49.358;11.256;2023-05-10T08:34:04;3.47;;;0.90;;
8642;SDS011;4359;49.358;11.256;2023-05-10T08:36:30;2.08;;;0.90;;
8642;SDS011;4359;49.358;11.256;2023-05-10T08:38:57;1.92;;;1.08;;
8642;SDS011;4359;49.358;11.256;2023-05-10T08:41:23;4.38;;;1.00;;
8642;SDS011;4359;49.358;11.256;2023-05-10T08:43:51;3.05;;;0.80;;
8642;SDS011;4359;49.358;11.256;2023-05-10T08:46:19;1.30;;;0.70;;
8642;SDS011;4359;49.358;11.256;2023-05-10T08:48:46;4.47;;;1.10;;
8642;SDS011;4359;49.358;11.256;2023-05-10T08:51:14;2.63;;;0.90;;
8642;SDS011;4359;49.358;11.256;2023-05-10T08:53:45;2.63;;;0.80;;
8642;SDS011;4359;49.358;11.256;2023-05-10T08:56:11;2.05;;;0.70;;
8642;SDS011;4359;49.358;11.256;2023-05-10T08:58:37;2.65;;;0.80;;
8642;SDS011;4359;49.358;11.256;2023-05-10T09:01:03;1.45;;;0.77;;
8642;SDS011;4359;49.358;11.256;2023-05-10T09:03:30;1.90;;;0.98;;
8642;SDS011;4359;49.358;11.256;2023-05-10T09:05:56;4.55;;;0.80;;
8642;SDS011;4359;49.358;11.256;2023-05-10T09:08:25;2.47;;;0.70;;
8642;SDS011;4359;49.358;11.256;2023-05-10T09:10:51;3.58;;;0.85;;
8642;SDS011;4359;49.358;11.256;2023-05-10T09:13:17;1.92;;;0.95;;
8642;SDS011;4359;49.358;11.256;2023-05-10T09:15:44;1.65;;;0.80;;
8642;SDS011;4359;49.358;11.256;2023-05-10T09:18:10;2.95;;;0.75;;
8642;SDS011;4359;49.358;11.256;2023-05-10T09:20:36;1.20;;;0.60;;
8642;SDS011;4359;49.358;11.256;2023-05-10T09:23:02;2.88;;;1.20;;
8642;SDS011;4359;49.358;11.256;2023-05-10T09:25:27;2.10;;;1.10;;
8642;SDS011;4359;49.358;11.256;2023-05-10T09:27:53;3.10;;;1.00;;
8642;SDS011;4359;49.358;11.256;2023-05-10T09:30:23;2.38;;;1.15;;
8642;SDS011;4359;49.358;11.256;2023-05-10T09:32:49;3.88;;;1.30;;
8642;SDS011;4359;49.358;11.256;2023-05-10T09:35:18;2.38;;;1.30;;
8642;SDS011;4359;49.358;11.256;2023-05-10T09:37:47;1.90;;;0.98;;
8642;SDS011;4359;49.358;11.256;2023-05-10T09:42:51;6.47;;;1.98;;
8642;SDS011;4359;49.358;11.256;2023-05-10T09:45:20;6.68;;;2.20;;
8642;SDS011;4359;49.358;11.256;2023-05-10T09:47:48;8.18;;;2.08;;
8642;SDS011;4359;49.358;11.256;2023-05-10T09:50:13;3.63;;;2.17;;
8642;SDS011;4359;49.358;11.256;2023-05-10T09:55:23;6.32;;;3.10;;
8642;SDS011;4359;49.358;11.256;2023-05-10T09:57:58;16.45;;;7.80;;
8642;SDS011;4359;49.358;11.256;2023-05-10T10:00:25;8.52;;;3.00;;
8642;SDS011;4359;49.358;11.256;2023-05-10T10:02:56;6.32;;;2.50;;
8642;SDS011;4359;49.358;11.256;2023-05-10T10:05:29;5.75;;;2.60;;
8642;SDS011;4359;49.358;11.256;2023-05-10T10:08:00;3.67;;;2.50;;
8642;SDS011;4359;49.358;11.256;2023-05-10T10:10:29;8.52;;;1.88;;
8642;SDS011;4359;49.358;11.256;2023-05-10T10:12:56;4.40;;;2.20;;
8642;SDS011;4359;49.358;11.256;2023-05-10T10:15:23;3.97;;;2.00;;
8642;SDS011;4359;49.358;11.256;2023-05-10T10:17:50;4.13;;;2.00;;
8642;SDS011;4359;49.358;11.256;2023-05-10T10:20:16;5.13;;;2.15;;
8642;SDS011;4359;49.358;11.256;2023-05-10T10:22:44;7.47;;;3.10;;
8642;SDS011;4359;49.358;11.256;2023-05-10T10:25:11;3.22;;;2.20;;
8642;SDS011;4359;49.358;11.256;2023-05-10T10:33:13;6.40;;;2.20;;
8642;SDS011;4359;49.358;11.256;2023-05-10T10:35:58;5.50;;;2.50;;
8642;SDS011;4359;49.358;11.256;2023-05-10T10:38:25;5.43;;;2.63;;
8642;SDS011;4359;49.358;11.256;2023-05-10T10:41:10;5.72;;;2.13;;
8642;SDS011;4359;49.358;11.256;2023-05-10T10:44:22;5.10;;;2.08;;
8642;SDS011;4359;49.358;11.256;2023-05-10T10:50:04;5.18;;;2.50;;
8642;SDS011;4359;49.358;11.256;2023-05-10T10:52:39;5.55;;;1.85;;
8642;SDS011;4359;49.358;11.256;2023-05-10T10:55:06;4.55;;;1.80;;
8642;SDS011;4359;49.358;11.256;2023-05-10T11:02:54;6.70;;;1.60;;
8642;SDS011;4359;49.358;11.256;2023-05-10T11:08:11;4.07;;;1.40;;
8642;SDS011;4359;49.358;11.256;2023-05-10T11:10:37;2.95;;;0.90;;
8642;SDS011;4359;49.358;11.256;2023-05-10T11:13:04;2.58;;;1.17;;
8642;SDS011;4359;49.358;11.256;2023-05-10T11:15:38;4.82;;;1.20;;
8642;SDS011;4359;49.358;11.256;2023-05-10T11:18:24;1.90;;;0.98;;
8642;SDS011;4359;49.358;11.256;2023-05-10T11:23:20;2.88;;;1.27;;
8642;SDS011;4359;49.358;11.256;2023-05-10T11:25:47;3.60;;;1.30;;
8642;SDS011;4359;49.358;11.256;2023-05-10T11:28:14;2.45;;;1.10;;
8642;SDS011;4359;49.358;11.256;2023-05-10T11:30:43;2.10;;;1.08;;
8642;SDS011;4359;49.358;11.256;2023-05-10T11:33:09;4.95;;;1.10;;
8642;SDS011;4359;49.358;11.256;2023-05-10T11:35:40;2.88;;;0.98;;
8642;SDS011;4359;49.358;11.256;2023-05-10T11:38:06;2.88;;;0.80;;
8642;SDS011;4359;49.358;11.256;2023-05-10T11:40:33;7.22;;;1.63;;
8642;SDS011;4359;49.358;11.256;2023-05-10T11:42:59;4.30;;;0.90;;
8642;SDS011;4359;49.358;11.256;2023-05-10T11:45:24;3.63;;;0.85;;
8642;SDS011;4359;49.358;11.256;2023-05-10T11:47:51;1.98;;;0.90;;
8642;SDS011;4359;49.358;11.256;2023-05-10T11:50:17;2.05;;;0.80;;
8642;SDS011;4359;49.358;11.256;2023-05-10T11:52:43;4.15;;;0.88;;
8642;SDS011;4359;49.358;11.256;2023-05-10T11:55:08;7.82;;;1.00;;
8642;SDS011;4359;49.358;11.256;2023-05-10T11:57:34;3.22;;;1.00;;
8642;SDS011;4359;49.358;11.256;2023-05-10T12:00:00;2.13;;;0.88;;
8642;SDS011;4359;49.358;11.256;2023-05-10T12:02:28;4.32;;;0.80;;
8642;SDS011;4359;49.358;11.256;2023-05-10T12:04:55;3.10;;;0.98;;
8642;SDS011;4359;49.358;11.256;2023-05-10T12:07:21;2.42;;;1.00;;
8642;SDS011;4359;49.358;11.256;2023-05-10T12:10:02;4.50;;;1.23;;
8642;SDS011;4359;49.358;11.256;2023-05-10T12:12:39;3.28;;;1.10;;
8642;SDS011;4359;49.358;11.256;2023-05-10T12:15:19;1.70;;;1.20;;
8642;SDS011;4359;49.358;11.256;2023-05-10T12:17:46;4.18;;;1.80;;
8642;SDS011;4359;49.358;11.256;2023-05-10T12:20:17;3.72;;;1.38;;
8642;SDS011;4359;49.358;11.256;2023-05-10T12:25:18;3.03;;;1.35;;
8642;SDS011;4359;49.358;11.256;2023-05-10T12:27:51;2.35;;;1.30;;
8642;SDS011;4359;49.358;11.256;2023-05-10T12:30:19;5.47;;;1.58;;
8642;SDS011;4359;49.358;11.256;2023-05-10T12:32:49;1.80;;;1.10;;
8642;SDS011;4359;49.358;11.256;2023-05-10T12:35:15;5.30;;;1.15;;
8642;SDS011;4359;49.358;11.256;2023-05-10T12:37:44;1.88;;;1.10;;
8642;SDS011;4359;49.358;11.256;2023-05-10T12:40:10;4.18;;;1.00;;
8642;SDS011;4359;49.358;11.256;2023-05-10T12:42:37;2.72;;;0.98;;
8642;SDS011;4359;49.358;11.256;2023-05-10T12:45:04;3.88;;;1.10;;
8642;SDS011;4359;49.358;11.256;2023-05-10T12:47:31;4.22;;;1.00;;
8642;SDS011;4359;49.358;11.256;2023-05-10T12:49:58;2.03;;;0.93;;
8642;SDS011;4359;49.358;11.256;2023-05-10T12:52:25;4.38;;;1.00;;
8642;SDS011;4359;49.358;11.256;2023-05-10T12:54:51;1.90;;;0.70;;
8642;SDS011;4359;49.358;11.256;2023-05-10T12:57:17;2.70;;;0.80;;
8642;SDS011;4359;49.358;11.256;2023-05-10T12:59:43;2.50;;;0.80;;
8642;SDS011;4359;49.358;11.256;2023-05-10T13:02:09;2.72;;;0.85;;
8642;SDS011;4359;49.358;11.256;2023-05-10T13:04:35;2.35;;;0.80;;
8642;SDS011;4359;49.358;11.256;2023-05-10T13:07:04;2.10;;;0.70;;
8642;SDS011;4359;49.358;11.256;2023-05-10T13:09:30;1.98;;;0.93;;
8642;SDS011;4359;49.358;11.256;2023-05-10T13:11:56;3.72;;;0.68;;
8642;SDS011;4359;49.358;11.256;2023-05-10T13:14:22;3.58;;;0.80;;
8642;SDS011;4359;49.358;11.256;2023-05-10T13:16:48;1.77;;;0.60;;
8642;SDS011;4359;49.358;11.256;2023-05-10T13:19:13;2.47;;;0.70;;
8642;SDS011;4359;49.358;11.256;2023-05-10T13:21:39;2.08;;;0.70;;
8642;SDS011;4359;49.358;11.256;2023-05-10T13:24:09;2.75;;;0.90;;
8642;SDS011;4359;49.358;11.256;2023-05-10T13:26:35;3.05;;;0.70;;
8642;SDS011;4359;49.358;11.256;2023-05-10T13:29:02;4.30;;;1.10;;
8642;SDS011;4359;49.358;11.256;2023-05-10T13:31:28;1.85;;;1.20;;
8642;SDS011;4359;49.358;11.256;2023-05-10T13:33:54;2.92;;;0.88;;
8642;SDS011;4359;49.358;11.256;2023-05-10T13:36:19;1.67;;;0.80;;
8642;SDS011;4359;49.358;11.256;2023-05-10T13:38:45;2.00;;;0.90;;
8642;SDS011;4359;49.358;11.256;2023-05-10T13:41:11;1.45;;;0.68;;
8642;SDS011;4359;49.358;11.256;2023-05-10T13:43:36;2.67;;;0.70;;
8642;SDS011;4359;49.358;11.256;2023-05-10T13:46:02;2.30;;;0.90;;
8642;SDS011;4359;49.358;11.256;2023-05-10T13:48:28;1.92;;;0.80;;
8642;SDS011;4359;49.358;11.256;2023-05-10T13:50:53;3.55;;;1.00;;
8642;SDS011;4359;49.358;11.256;2023-05-10T13:53:19;6.65;;;1.17;;
8642;SDS011;4359;49.358;11.256;2023-05-10T13:55:45;1.45;;;0.57;;
8642;SDS011;4359;49.358;11.256;2023-05-10T13:58:12;6.03;;;0.80;;
8642;SDS011;4359;49.358;11.256;2023-05-10T14:00:37;2.67;;;0.70;;
8642;SDS011;4359;49.358;11.256;2023-05-10T14:03:03;2.08;;;1.02;;
8642;SDS011;4359;49.358;11.256;2023-05-10T14:05:30;1.92;;;0.90;;
8642;SDS011;4359;49.358;11.256;2023-05-10T14:07:55;3.67;;;0.70;;
8642;SDS011;4359;49.358;11.256;2023-05-10T14:10:22;2.50;;;0.80;;
8642;SDS011;4359;49.358;11.256;2023-05-10T14:12:47;2.15;;;0.70;;
8642;SDS011;4359;49.358;11.256;2023-05-10T14:15:14;1.63;;;0.80;;
8642;SDS011;4359;49.358;11.256;2023-05-10T14:17:40;2.85;;;1.30;;
8642;SDS011;4359;49.358;11.256;2023-05-10T14:20:06;2.28;;;0.98;;
8642;SDS011;4359;49.358;11.256;2023-05-10T14:22:32;1.90;;;1.20;;
8642;SDS011;4359;49.358;11.256;2023-05-10T14:24:58;4.80;;;1.13;;
8642;SDS011;4359;49.358;11.256;2023-05-10T14:27:23;3.78;;;1.08;;
8642;SDS011;4359;49.358;11.256;2023-05-10T14:29:49;2.15;;;1.10;;
8642;SDS011;4359;49.358;11.256;2023-05-10T14:32:15;8.00;;;1.65;;
8642;SDS011;4359;49.358;11.256;2023-05-10T14:34:40;3.13;;;1.33;;
8642;SDS011;4359;49.358;11.256;2023-05-10T14:37:06;2.45;;;1.40;;
8642;SDS011;4359;49.358;11.256;2023-05-10T14:39:32;3.03;;;1.10;;
8642;SDS011;4359;49.358;11.256;2023-05-10T14:41:58;3.60;;;1.05;;
8642;SDS011;4359;49.358;11.256;2023-05-10T14:44:23;3.78;;;1.10;;
8642;SDS011;4359;49.358;11.256;2023-05-10T14:46:50;2.67;;;1.52;;
8642;SDS011;4359;49.358;11.256;2023-05-10T14:49:16;3.30;;;1.20;;
8642;SDS011;4359;49.358;11.256;2023-05-10T14:51:42;4.18;;;1.20;;
8642;SDS011;4359;49.358;11.256;2023-05-10T14:54:07;3.95;;;1.08;;
8642;SDS011;4359;49.358;11.256;2023-05-10T14:56:33;3.45;;;1.05;;
8642;SDS011;4359;49.358;11.256;2023-05-10T14:58:58;4.15;;;1.40;;
8642;SDS011;4359;49.358;11.256;2023-05-10T15:01:25;5.25;;;1.10;;
8642;SDS011;4359;49.358;11.256;2023-05-10T15:03:50;4.38;;;0.95;;
8642;SDS011;4359;49.358;11.256;2023-05-10T15:06:16;1.50;;;0.70;;
8642;SDS011;4359;49.358;11.256;2023-05-10T15:08:42;9.68;;;1.30;;
8642;SDS011;4359;49.358;11.256;2023-05-10T15:11:08;3.33;;;1.30;;
8642;SDS011;4359;49.358;11.256;2023-05-10T15:13:34;3.75;;;1.50;;
8642;SDS011;4359;49.358;11.256;2023-05-10T15:15:59;2.42;;;1.45;;
8642;SDS011;4359;49.358;11.256;2023-05-10T15:18:25;2.88;;;1.27;;
8642;SDS011;4359;49.358;11.256;2023-05-10T15:20:51;3.47;;;1.55;;
8642;SDS011;4359;49.358;11.256;2023-05-10T15:23:16;4.97;;;2.05;;
8642;SDS011;4359;49.358;11.256;2023-05-10T15:25:42;4.60;;;1.58;;
8642;SDS011;4359;49.358;11.256;2023-05-10T15:28:08;7.20;;;2.08;;
8642;SDS011;4359;49.358;11.256;2023-05-10T15:30:33;13.77;;;8.35;;
8642;SDS011;4359;49.358;11.256;2023-05-10T15:32:59;5.07;;;1.77;;
8642;SDS011;4359;49.358;11.256;2023-05-10T15:35:25;4.07;;;1.90;;
8642;SDS011;4359;49.358;11.256;2023-05-10T15:37:51;6.65;;;2.88;;
8642;SDS011;4359;49.358;11.256;2023-05-10T15:40:17;4.10;;;1.60;;
8642;SDS011;4359;49.358;11.256;2023-05-10T15:42:42;6.80;;;2.20;;
8642;SDS011;4359;49.358;11.256;2023-05-10T15:45:08;2.33;;;1.30;;